Thunder radar more information blitzortung!


Radar de pluja more information rain snow radar


Visita la nostra xarxa de llocs de meteo:

Template documentation
and downloads

And another site



No particular awareness of the weather is required.    There are no Weather-warnings

Pagina Historial Weather Underground text

Diari Resum Juny 17, 2017 Unitats:  Imperial    Mètric   Tant
« Previous Dia
SegĂźent Dia »
Diari Setmana Mensual Anual Personalitzada
  Maxima: Minima: Media:
Temperatura: 90.7 °F 70.3 °F 82 °F
Punt de rosada: 66.9 °F 59.4 °F 63.9 °F
Humitat: 82 % 42 % 56 %
Wind Speed: 13.8 mph 0 mph 4.7 mph
RĂ fegues de vent: 13.8 mph - -
Vent:- - SE
Pression baro: 30.1 in 29.9 in -
Precipitacions: 0 in    
Historical Graphs
 
 
Dades de taula per Juny 17, 2017
Temps Temperatura Punt de rosada Pression baro Vent Wind Speed RĂ fegues de vent Humitat Rainfall Rate (Hourly)
00:00 77 °F 59.5 °F 30.1 in SW 2.6 mph 2.6 mph 55 % 0 in
00:05 76.8 °F 59.9 °F 30.1 in SSW 2.3 mph 2.3 mph 56 % 0 in
00:15 72.7 °F 60.6 °F 30 in Calm   1 mph 66 % 0 in
00:25 72.7 °F 60.6 °F 30 in Calm   2 mph 66 % 0 in
00:35 72.5 °F 60.4 °F 30 in NNW 1 mph 1 mph 66 % 0 in
00:45 72.5 °F 60.1 °F 30 in NW 1 mph 2 mph 65 % 0 in
00:55 72.3 °F 60.3 °F 30 in Calm   1 mph 66 % 0 in
01:05 72.1 °F 60.3 °F 30 in North 1 mph 2 mph 66 % 0 in
01:15 72.1 °F 60.3 °F 30 in Calm   1 mph 66 % 0 in
01:25 72 °F 60.1 °F 30 in NNE 1 mph 2 mph 66 % 0 in
01:35 70.9 °F 59.7 °F 30 in Calm     68 % 0 in
01:45 70.3 °F 59.7 °F 30 in Calm   2 mph 69 % 0 in
02:00 70.9 °F 60.3 °F 30 in Calm   1 mph 69 % 0 in
02:10 70.5 °F 59.4 °F 30 in NW 1 mph 2 mph 68 % 0 in
02:20 70.9 °F 60.6 °F 30 in Calm   1 mph 70 % 0 in
02:30 70.9 °F 60.3 °F 30 in SW 1 mph 1 mph 69 % 0 in
02:40 71.6 °F 61 °F 30 in SW 1 mph 2 mph 69 % 0 in
02:50 73 °F 61.9 °F 30 in South 1 mph 1 mph 68 % 0 in
03:00 73.2 °F 61.5 °F 30 in SSE 2 mph 2 mph 67 % 0 in
03:10 73.6 °F 61.5 °F 30 in South 1 mph 3 mph 66 % 0 in
03:20 73.9 °F 61.3 °F 30 in SW 1 mph 2 mph 65 % 0 in
03:30 74.3 °F 61.9 °F 30 in SW 1 mph 2 mph 65 % 0 in
03:40 74.7 °F 61.7 °F 30 in SW 1 mph 3 mph 64 % 0 in
03:50 75.7 °F 61.9 °F 30 in SW 2 mph 2 mph 62 % 0 in
04:00 77.4 °F 63 °F 30 in Calm   2 mph 61 % 0 in
04:10 79.2 °F 64 °F 30 in NNW 1 mph 2 mph 60 % 0 in
04:20 79.5 °F 63.3 °F 30 in NNE 3 mph 3 mph 58 % 0 in
04:30 80.8 °F 64 °F 30 in NE 1 mph 2 mph 57 % 0 in
04:40 81.1 °F 64 °F 30 in NE 1 mph 3 mph 56 % 0 in
04:50 81.9 °F 64 °F 30 in NE 2 mph 2 mph 55 % 0 in
05:00 82.9 °F 64.6 °F 30 in North 1 mph 2 mph 54 % 0 in
10:02 83.7 °F 64.8 °F 30 in NE 1.2 mph 2.9 mph 53 % 0 in
10:07 82.9 °F 64 °F 30 in East 2.3 mph 2.3 mph 53 % 0 in
10:12 82.8 °F 63.3 °F 30 in ESE 4.6 mph 4.6 mph 52 % 0 in
10:17 82.6 °F 63.1 °F 30 in SE 4.6 mph 4.6 mph 52 % 0 in
10:22 83.3 °F 63.9 °F 30 in ESE 4.6 mph 4.6 mph 52 % 0 in
10:27 84 °F 64.6 °F 30 in NE 3.5 mph 3.5 mph 52 % 0 in
10:32 85.1 °F 64.4 °F 30 in ESE 3.1 mph 3.1 mph 50 % 0 in
10:37 84.4 °F 63.7 °F 30 in SSE 2.3 mph 2.3 mph 50 % 0 in
10:42 84.4 °F 63.1 °F 30 in NE 2.6 mph 2.6 mph 49 % 0 in
10:47 84 °F 63.3 °F 30 in NNE 4.6 mph 4.6 mph 50 % 0 in
10:52 84.9 °F 63.7 °F 30 in SSE 2.3 mph 2.3 mph 49 % 0 in
10:57 85.5 °F 64 °F 30 in East 3.3 mph 3.3 mph 49 % 0 in
11:02 86.2 °F 64.2 °F 30 in SSW 3.5 mph 3.5 mph 48 % 0 in
11:07 86 °F 64 °F 30 in WSW 2.6 mph 2.6 mph 48 % 0 in
11:12 87.6 °F 64.9 °F 30 in South 3.8 mph 3.8 mph 47 % 0 in
11:17 87.8 °F 64.4 °F 30 in SW 4.6 mph 4.6 mph 46 % 0 in
11:22 88 °F 64.6 °F 30 in WNW 2.6 mph 2.6 mph 46 % 0 in
11:27 89.1 °F 64.9 °F 30 in SSE 2.6 mph 2.6 mph 45 % 0 in
11:32 89.2 °F 65.1 °F 30 in West 4.6 mph 4.6 mph 45 % 0 in
11:37 89.1 °F 64.9 °F 30 in SW 3.5 mph 3.5 mph 45 % 0 in
11:42 89.6 °F 64.8 °F 30 in West 1.2 mph 1.2 mph 44 % 0 in
11:47 90.1 °F 65.3 °F 30 in WSW 3.5 mph 3.5 mph 44 % 0 in
11:52 90.5 °F 64.9 °F 30 in NNE 2.3 mph 2.3 mph 43 % 0 in
11:57 90.7 °F 65.1 °F 30 in South 4.6 mph 4.6 mph 43 % 0 in
12:02 90.1 °F 64.6 °F 30 in SE 5.8 mph 5.8 mph 43 % 0 in
12:07 89.4 °F 64 °F 30 in NE 5.9 mph 5.9 mph 43 % 0 in
12:12 89.4 °F 64 °F 30 in ESE 6.4 mph 6.4 mph 43 % 0 in
12:18 89.2 °F 63.9 °F 29.9 in ENE 5.8 mph 5.8 mph 43 % 0 in
12:23 90.7 °F 65.1 °F 29.9 in NE 3.5 mph 3.5 mph 43 % 0 in
12:28 89.6 °F 64 °F 29.9 in East 7.6 mph 7.6 mph 43 % 0 in
12:33 89.2 °F 63.9 °F 29.9 in SE 8.1 mph 8.1 mph 43 % 0 in
12:38 89.6 °F 64 °F 29.9 in SE 5.9 mph 5.9 mph 43 % 0 in
12:43 89.6 °F 64 °F 29.9 in SE 8.1 mph 8.1 mph 43 % 0 in
12:48 89.4 °F 64 °F 29.9 in East 6.4 mph 6.4 mph 43 % 0 in
12:53 88.5 °F 63.1 °F 29.9 in West 9.2 mph 9.2 mph 43 % 0 in
12:58 88.7 °F 63.3 °F 29.9 in ESE 8.1 mph 8.1 mph 43 % 0 in
13:03 89.4 °F 64 °F 29.9 in ESE 8.1 mph 8.1 mph 43 % 0 in
13:08 90.3 °F 64.8 °F 29.9 in ESE 6.9 mph 6.9 mph 43 % 0 in
13:13 89.4 °F 64 °F 29.9 in East 6.9 mph 6.9 mph 43 % 0 in
13:18 89.8 °F 64.2 °F 29.9 in East 11.5 mph 11.5 mph 43 % 0 in
13:23 89.8 °F 64.2 °F 29.9 in ESE 6.9 mph 7.4 mph 43 % 0 in
13:28 89.8 °F 64.2 °F 29.9 in ESE 11.5 mph 11.5 mph 43 % 0 in
13:33 90.1 °F 64.6 °F 29.9 in ESE 10.2 mph 10.2 mph 43 % 0 in
13:38 90 °F 64.6 °F 29.9 in ENE 7.8 mph 7.8 mph 43 % 0 in
13:43 90.5 °F 64.9 °F 29.9 in SE 9.2 mph 9.2 mph 43 % 0 in
13:48 90.3 °F 64.8 °F 29.9 in NE 8.5 mph 8.5 mph 43 % 0 in
13:53 89.6 °F 64 °F 29.9 in ESE 8.1 mph 8.1 mph 43 % 0 in
13:58 89.8 °F 63.7 °F 29.9 in ESE 8.1 mph 8.1 mph 42 % 0 in
14:03 89.2 °F 63.9 °F 29.9 in ENE 10.4 mph 10.4 mph 43 % 0 in
14:08 89.8 °F 64.2 °F 29.9 in East 10.5 mph 10.5 mph 43 % 0 in
14:13 89.6 °F 64 °F 29.9 in ENE 9.8 mph 9.8 mph 43 % 0 in
14:18 89.4 °F 64.6 °F 29.9 in NE 8.1 mph 8.1 mph 44 % 0 in
14:23 89.6 °F 64.8 °F 29.9 in ESE 10.4 mph 10.4 mph 44 % 0 in
14:28 89.8 °F 64.9 °F 29.9 in East 8.1 mph 8.1 mph 44 % 0 in
14:33 89.4 °F 65.3 °F 29.9 in ESE 11.5 mph 11.5 mph 45 % 0 in
14:38 89.8 °F 64.9 °F 29.9 in ESE 11.5 mph 11.5 mph 44 % 0 in
14:43 89.2 °F 65.1 °F 29.9 in East 8.1 mph 8.1 mph 45 % 0 in
14:48 89.4 °F 65.3 °F 29.9 in NE 8.1 mph 8.1 mph 45 % 0 in
14:53 89.2 °F 65.8 °F 29.9 in ESE 9.2 mph 9.2 mph 46 % 0 in
14:54 89.1 °F 65.7 °F 29.9 in East 10.4 mph 10.4 mph 46 % 0 in
14:59 89.2 °F 65.8 °F 29.9 in WNW 5.8 mph 5.8 mph 46 % 0 in
15:04 89.4 °F 65.8 °F 29.9 in ESE 12.7 mph 12.7 mph 46 % 0 in
15:09 89.2 °F 65.8 °F 29.9 in ESE 6.9 mph 6.9 mph 46 % 0 in
15:14 89.4 °F 65.8 °F 29.9 in ENE 10.4 mph 10.4 mph 46 % 0 in
15:19 89.6 °F 66.7 °F 29.9 in ESE 8.1 mph 8.1 mph 47 % 0 in
15:24 88.9 °F 66.7 °F 29.9 in East 13.8 mph 13.8 mph 48 % 0 in
15:29 89.2 °F 66.9 °F 29.9 in ESE 8.1 mph 8.1 mph 48 % 0 in
15:34 88.9 °F 66 °F 29.9 in East 11.5 mph 11.5 mph 47 % 0 in
15:39 88.7 °F 65.3 °F 29.9 in NE 8.1 mph 8.1 mph 46 % 0 in
15:44 89.4 °F 65.8 °F 29.9 in ESE 5.8 mph 5.8 mph 46 % 0 in
15:49 90 °F 65.8 °F 29.9 in ESE 6.9 mph 6.9 mph 45 % 0 in
15:54 88.9 °F 64.8 °F 29.9 in ENE 11.5 mph 11.5 mph 45 % 0 in
15:59 89.6 °F 64.8 °F 29.9 in ENE 6 mph 6 mph 44 % 0 in
16:04 89.4 °F 64.6 °F 29.9 in ESE 10.4 mph 10.4 mph 44 % 0 in
16:09 89.4 °F 64 °F 29.9 in SSE 9.2 mph 9.2 mph 43 % 0 in
16:15 88.9 °F 63.5 °F 29.9 in NE 8.1 mph 8.1 mph 43 % 0 in
16:20 88.7 °F 62.8 °F 29.9 in ENE 9.2 mph 9.2 mph 42 % 0 in
16:25 88.9 °F 62.8 °F 29.9 in ESE 8.1 mph 8.1 mph 42 % 0 in
16:30 88.5 °F 62.4 °F 29.9 in ESE 8.7 mph 8.7 mph 42 % 0 in
16:35 88.2 °F 62.2 °F 29.9 in ENE 13 mph 13 mph 42 % 0 in
16:40 88.2 °F 62.8 °F 29.9 in ESE 5.9 mph 5.9 mph 43 % 0 in
16:45 88.2 °F 62.8 °F 29.9 in ENE 10.4 mph 10.4 mph 43 % 0 in
16:46 88.2 °F 62.8 °F 29.9 in ESE 7.4 mph 7.4 mph 43 % 0 in
16:51 88 °F 62.8 °F 29.9 in East 7.1 mph 7.1 mph 43 % 0 in
16:56 87.8 °F 61.9 °F 29.9 in NE 8.1 mph 8.1 mph 42 % 0 in
17:01 88 °F 62.8 °F 29.9 in ESE 10.4 mph 10.4 mph 43 % 0 in
17:06 87.8 °F 62.4 °F 29.9 in ENE 5.8 mph 5.8 mph 43 % 0 in
17:11 87.4 °F 62.8 °F 29.9 in East 5.8 mph 5.8 mph 44 % 0 in
17:16 87.6 °F 63 °F 29.9 in ENE 9.2 mph 9.2 mph 44 % 0 in
17:21 87.1 °F 63.1 °F 29.9 in ESE 13 mph 13 mph 45 % 0 in
17:26 86.7 °F 62.8 °F 29.9 in SE 8.7 mph 8.7 mph 45 % 0 in
17:31 86.2 °F 63 °F 29.9 in ESE 8.1 mph 8.1 mph 46 % 0 in
17:36 85.6 °F 63.1 °F 29.9 in SE 10.4 mph 10.4 mph 47 % 0 in
17:41 85.3 °F 62.8 °F 29.9 in ESE 12.7 mph 12.7 mph 47 % 0 in
17:46 85.1 °F 63.1 °F 29.9 in ENE 5.8 mph 5.8 mph 48 % 0 in
17:47 85.1 °F 63.1 °F 29.9 in NW 9.8 mph 9.8 mph 48 % 0 in
17:52 85.1 °F 63.1 °F 29.9 in NE 5.8 mph 5.8 mph 48 % 0 in
17:57 84.7 °F 63.5 °F 29.9 in ENE 10.9 mph 10.9 mph 49 % 0 in
18:02 84.9 °F 63.7 °F 29.9 in East 6.9 mph 6.9 mph 49 % 0 in
18:07 85.1 °F 63.9 °F 29.9 in SSE 5.8 mph 6.4 mph 49 % 0 in
18:12 84.9 °F 64.2 °F 29.9 in ESE 5.8 mph 5.8 mph 50 % 0 in
18:13 84.7 °F 64 °F 29.9 in ENE 10.4 mph 10.4 mph 50 % 0 in
18:18 84.6 °F 63.9 °F 29.9 in SE 6.9 mph 6.9 mph 50 % 0 in
18:23 84.7 °F 64 °F 29.9 in ESE 8.5 mph 8.5 mph 50 % 0 in
18:28 84.2 °F 63.5 °F 29.9 in East 6.9 mph 6.9 mph 50 % 0 in
18:33 84 °F 64.6 °F 29.9 in ENE 9.2 mph 9.2 mph 52 % 0 in
18:38 84 °F 64.6 °F 29.9 in ENE 5.8 mph 5.8 mph 52 % 0 in
18:43 83.8 °F 64.2 °F 29.9 in ENE 8.1 mph 8.1 mph 52 % 0 in
18:48 83.7 °F 64.2 °F 29.9 in East 7.6 mph 7.6 mph 52 % 0 in
18:53 83.7 °F 64.2 °F 29.9 in East 6.9 mph 6.9 mph 52 % 0 in
18:58 83.3 °F 63.9 °F 29.9 in ESE 10.4 mph 10.4 mph 52 % 0 in
18:59 83.1 °F 63.7 °F 29.9 in East 10.4 mph 10.4 mph 52 % 0 in
19:04 83.1 °F 63.7 °F 29.9 in ENE 6.9 mph 6.9 mph 52 % 0 in
19:09 83.3 °F 63.9 °F 29.9 in NNE 8.1 mph 8.1 mph 52 % 0 in
19:14 82.9 °F 63.5 °F 29.9 in ESE 9.2 mph 9.2 mph 52 % 0 in
19:19 82.9 °F 63.5 °F 29.9 in North 4.6 mph 4.6 mph 52 % 0 in
19:20 75.4 °F 64.6 °F 29.9 in SW 1 mph 1 mph 69 % 0 in
19:24 82.8 °F 63.3 °F 29.9 in East 8.1 mph 8.1 mph 52 % 0 in
19:29 82.6 °F 63.7 °F 29.9 in ENE 8.1 mph 8.1 mph 53 % 0 in
19:30 75.2 °F 64.2 °F 29.9 in SW 1 mph 1 mph 69 % 0 in
19:34 82.8 °F 63.9 °F 29.9 in East 4.6 mph 4.6 mph 53 % 0 in
19:39 82.8 °F 63.9 °F 29.9 in East 6.9 mph 6.9 mph 53 % 0 in
19:40 75.2 °F 64.8 °F 29.9 in Calm   2 mph 70 % 0 in
19:44 82.4 °F 64 °F 29.9 in ESE 3.5 mph 3.5 mph 54 % 0 in
19:49 82.4 °F 64 °F 29.9 in ENE 8.1 mph 8.1 mph 54 % 0 in
19:50 74.8 °F 64.8 °F 29.9 in SW 1 mph 2 mph 71 % 0 in
19:54 82.4 °F 64 °F 29.9 in ESE 6.9 mph 6.9 mph 54 % 0 in
19:59 82.2 °F 63.9 °F 29.9 in SSE 3.5 mph 3.5 mph 54 % 0 in
20:00 74.5 °F 64.6 °F 29.9 in SW 1 mph 2 mph 71 % 0 in
20:04 82.2 °F 63.9 °F 29.9 in ESE 5.8 mph 5.8 mph 54 % 0 in
20:09 82 °F 64.2 °F 29.9 in ESE 5.9 mph 5.9 mph 55 % 0 in
20:10 74.3 °F 64.8 °F 29.9 in SW 1 mph 2 mph 72 % 0 in
20:14 82 °F 64.2 °F 29.9 in East 6.2 mph 6.2 mph 55 % 0 in
20:19 81.9 °F 64 °F 29.9 in NE 6.4 mph 6.4 mph 55 % 0 in
20:20 74.1 °F 64.6 °F 29.9 in SW 2 mph 2 mph 72 % 0 in
20:24 81.7 °F 63.9 °F 29.9 in ESE 4.9 mph 4.9 mph 55 % 0 in
20:29 81.5 °F 63.9 °F 29.9 in ESE 5.8 mph 5.8 mph 55 % 0 in
20:30 73.9 °F 64.8 °F 29.9 in SW 1 mph 2 mph 73 % 0 in
20:34 81.3 °F 63.7 °F 29.9 in NE 4.6 mph 4.6 mph 55 % 0 in
20:39 81.1 °F 63.3 °F 29.9 in ENE 3.8 mph 3.8 mph 55 % 0 in
20:40 73.9 °F 64.8 °F 30 in WSW 2 mph 3 mph 73 % 0 in
20:44 81.1 °F 64 °F 29.9 in NE 3.5 mph 3.5 mph 56 % 0 in
20:49 81.1 °F 64 °F 29.9 in ESE 2.4 mph 2.4 mph 56 % 0 in
20:50 73.8 °F 64.9 °F 30 in WSW 1 mph 2 mph 74 % 0 in
20:54 81.1 °F 64 °F 29.9 in SE 2.6 mph 2.6 mph 56 % 0 in
20:59 81 °F 63.9 °F 29.9 in East 2.4 mph 2.4 mph 56 % 0 in
21:00 73.6 °F 65.1 °F 29.9 in SW 1 mph 2 mph 75 % 0 in
21:04 80.8 °F 63.7 °F 29.9 in WSW 2.3 mph 2.3 mph 56 % 0 in
21:09 80.8 °F 63.7 °F 29.9 in WSW 2.3 mph 2.3 mph 56 % 0 in
21:10 73.4 °F 64.9 °F 29.9 in SW 1 mph 2 mph 75 % 0 in
21:14 80.8 °F 63.7 °F 29.9 in Calm     56 % 0 in
21:19 80.6 °F 63.5 °F 29.9 in SSE 1.2 mph   56 % 0 in
21:20 73.2 °F 65.7 °F 29.9 in SW 1 mph 2 mph 77 % 0 in
21:24 80.6 °F 63.5 °F 29.9 in WSW 1.2 mph   56 % 0 in
21:29 80.4 °F 63.9 °F 29.9 in WSW 1.2 mph   57 % 0 in
21:30 73.2 °F 65.7 °F 29.9 in WSW 1 mph 2 mph 77 % 0 in
21:34 80.4 °F 63.9 °F 29.9 in WSW 3.5 mph 3.5 mph 57 % 0 in
21:39 80.2 °F 64 °F 29.9 in WSW 2.3 mph 2.3 mph 58 % 0 in
21:40 73 °F 66 °F 29.9 in Calm   2 mph 79 % 0 in
21:44 79.9 °F 64.2 °F 29.9 in SW 2.3 mph 2.3 mph 59 % 0 in
21:49 79.9 °F 64.8 °F 29.9 in SW 2.4 mph 2.4 mph 60 % 0 in
21:50 72.9 °F 66 °F 29.9 in Calm   2 mph 79 % 0 in
21:54 79.5 °F 64.4 °F 29.9 in SW 1.6 mph 1.6 mph 60 % 0 in
21:59 79.3 °F 64.8 °F 29.9 in SW 2.3 mph 2.3 mph 61 % 0 in
22:00 72.9 °F 66.4 °F 29.9 in Calm     80 % 0 in
22:04 79.2 °F 64.6 °F 29.9 in WNW 2.3 mph 2.3 mph 61 % 0 in
22:09 79 °F 64.8 °F 29.9 in SW 2.3 mph 2.3 mph 62 % 0 in
22:10 72.3 °F 65.8 °F 29.9 in Calm   2 mph 80 % 0 in
22:14 78.6 °F 64.9 °F 29.9 in SW 2.3 mph 2.3 mph 63 % 0 in
22:19 78.4 °F 64.8 °F 29.9 in SW 4.6 mph 4.6 mph 63 % 0 in
22:20 72 °F 65.5 °F 29.9 in Calm     80 % 0 in
22:24 78.3 °F 65.1 °F 29.9 in SSW 2.3 mph 2.3 mph 64 % 0 in
22:29 78.1 °F 64.9 °F 29.9 in SW 2.4 mph 2.4 mph 64 % 0 in
22:30 71.6 °F 64.8 °F 29.9 in Calm     79 % 0 in
22:34 77.9 °F 65.1 °F 29.9 in SW 2.3 mph 2.3 mph 65 % 0 in
22:39 77.9 °F 65.1 °F 29.9 in SW 2.3 mph 2.3 mph 65 % 0 in
22:40 71.4 °F 64.6 °F 29.9 in Calm     79 % 0 in
22:44 77.5 °F 64.8 °F 29.9 in SW 2.3 mph 2.3 mph 65 % 0 in
22:49 77.4 °F 64.8 °F 29.9 in WSW 3.1 mph 3.1 mph 65 % 0 in
22:50 71.4 °F 64.6 °F 29.9 in Calm   1 mph 79 % 0 in
22:54 77.2 °F 64.9 °F 29.9 in WSW 2.3 mph 2.3 mph 66 % 0 in
22:59 77 °F 64.8 °F 29.9 in WSW 1.2 mph 1.2 mph 66 % 0 in
23:00 71.2 °F 64.8 °F 29.9 in Calm   1 mph 80 % 0 in
23:04 77 °F 64.8 °F 29.9 in WSW 2.4 mph 2.4 mph 66 % 0 in
23:09 76.8 °F 64.9 °F 29.9 in WSW 2.3 mph 2.3 mph 67 % 0 in
23:10 71.1 °F 64.9 °F 29.9 in Calm     81 % 0 in
23:14 76.8 °F 64.9 °F 29.9 in SSW 2.9 mph 2.9 mph 67 % 0 in
23:19 76.8 °F 64.9 °F 29.9 in WSW 3.5 mph 3.5 mph 67 % 0 in
23:20 70.9 °F 64.8 °F 29.9 in Calm     81 % 0 in
23:24 76.6 °F 64.9 °F 29.9 in SW 3.5 mph 3.5 mph 67 % 0 in
23:29 76.5 °F 64.8 °F 29.9 in SW 3.5 mph 3.5 mph 67 % 0 in
23:30 70.7 °F 64.9 °F 29.9 in SE 1 mph 1 mph 82 % 0 in
23:34 76.3 °F 64.9 °F 29.9 in SW 2.6 mph 2.6 mph 68 % 0 in
23:39 76.1 °F 64.8 °F 29.9 in SW 2.3 mph 2.3 mph 68 % 0 in
23:40 70.7 °F 64.9 °F 29.9 in Calm     82 % 0 in
23:44 76.1 °F 64.8 °F 29.9 in WSW 3.5 mph 3.5 mph 68 % 0 in
23:49 75.9 °F 64.6 °F 29.9 in SW 4 mph 4 mph 68 % 0 in
23:50 70.7 °F 64.9 °F 29.9 in East 1 mph 2 mph 82 % 0 in
23:54 75.9 °F 64.6 °F 29.9 in WSW 2.3 mph 2.3 mph 68 % 0 in
23:59 75.7 °F 64.4 °F 29.9 in SW 2.3 mph 2.3 mph 68 % 0 in
Meteo Sesrovires
Elogis d' Weather Underground - 3.75 mb

Guio original per  Jim McMurry - jmcmurry@mwt.net Adaptat per a la plantilla per  Wim van der Kuil - Leuven-Template.eu

Trobareu la nostra informacio del temps tambe a:

Weather Underground

AWEKAS